Terminal Aerodrome Forecast
Issued by NWS Wakefield, VA

Home | Current Version | Previous Version | Text Only | Print | Product List | Glossary On
Versions: 1 2 3 4 5 6 7 8 9 10 11 12 13 14 15 16 17 18 19 20
000
FTUS41 KAKQ 110000 AAA
TAFORF
TAF AMD
KORF 110042Z 1101/1124 19004KT P6SM BKN009 BKN015
     FM110300 19003KT 6SM BR SCT009 BKN025
      TEMPO 1108/1112 3SM BR
     FM111500 11004KT 4SM BR OVC020
     FM111600 09009KT P6SM BKN050=

USA.gov is the U.S. government's official web portal to all federal, state and local government web resources and services.